sensor_id;sensor_type;location;lat;lon;timestamp;pressure;altitude;pressure_sealevel;temperature;humidity
11347;BME280;5728;42.722;23.258;2023-02-10T00:02:00;96542.84;;;-2.22;66.75
11347;BME280;5728;42.722;23.258;2023-02-10T00:04:27;96551.53;;;-3.25;66.46
11347;BME280;5728;42.722;23.258;2023-02-10T00:06:55;96550.88;;;-4.22;70.60
11347;BME280;5728;42.722;23.258;2023-02-10T00:09:21;96550.63;;;-4.14;71.89
11347;BME280;5728;42.722;23.258;2023-02-10T00:11:48;96590.72;;;-3.46;72.69
11347;BME280;5728;42.722;23.258;2023-02-10T00:14:26;96543.88;;;-3.00;70.12
11347;BME280;5728;42.722;23.258;2023-02-10T00:16:53;96544.72;;;-2.73;68.76
11347;BME280;5728;42.722;23.258;2023-02-10T00:19:22;96543.13;;;-2.71;68.09
11347;BME280;5728;42.722;23.258;2023-02-10T00:21:50;96534.97;;;-3.06;69.32
11347;BME280;5728;42.722;23.258;2023-02-10T00:24:19;96541.34;;;-2.59;68.19
11347;BME280;5728;42.722;23.258;2023-02-10T00:26:46;96539.44;;;-2.76;67.87
11347;BME280;5728;42.722;23.258;2023-02-10T00:29:13;96536.13;;;-2.62;68.85
11347;BME280;5728;42.722;23.258;2023-02-10T00:31:39;96531.41;;;-2.56;67.27
11347;BME280;5728;42.722;23.258;2023-02-10T00:34:07;96515.41;;;-2.68;65.90
11347;BME280;5728;42.722;23.258;2023-02-10T00:36:34;96519.59;;;-2.55;67.88
11347;BME280;5728;42.722;23.258;2023-02-10T00:39:01;96529.69;;;-2.83;68.67
11347;BME280;5728;42.722;23.258;2023-02-10T00:41:29;96514.81;;;-2.64;66.53
11347;BME280;5728;42.722;23.258;2023-02-10T00:43:56;96524.63;;;-3.22;69.44
11347;BME280;5728;42.722;23.258;2023-02-10T00:46:23;96523.09;;;-4.45;71.25
11347;BME280;5728;42.722;23.258;2023-02-10T00:48:50;96524.84;;;-4.81;74.19
11347;BME280;5728;42.722;23.258;2023-02-10T00:51:19;96516.91;;;-5.56;76.16
11347;BME280;5728;42.722;23.258;2023-02-10T00:53:45;96522.56;;;-5.94;77.67
11347;BME280;5728;42.722;23.258;2023-02-10T00:56:15;96520.25;;;-4.98;77.45
11347;BME280;5728;42.722;23.258;2023-02-10T00:58:43;96511.31;;;-4.70;77.43
11347;BME280;5728;42.722;23.258;2023-02-10T01:01:11;96505.19;;;-4.24;74.90
11347;BME280;5728;42.722;23.258;2023-02-10T01:03:38;96506.41;;;-4.55;74.77
11347;BME280;5728;42.722;23.258;2023-02-10T01:06:05;96506.00;;;-3.87;72.70
11347;BME280;5728;42.722;23.258;2023-02-10T01:08:33;96522.63;;;-3.66;72.42
11347;BME280;5728;42.722;23.258;2023-02-10T01:11:01;96511.72;;;-3.52;70.13
11347;BME280;5728;42.722;23.258;2023-02-10T01:13:28;96514.66;;;-3.46;71.16
11347;BME280;5728;42.722;23.258;2023-02-10T01:15:56;96504.13;;;-3.39;71.81
11347;BME280;5728;42.722;23.258;2023-02-10T01:18:23;96514.09;;;-3.29;71.54
11347;BME280;5728;42.722;23.258;2023-02-10T01:20:50;96502.97;;;-3.17;69.95
11347;BME280;5728;42.722;23.258;2023-02-10T01:23:16;96497.31;;;-3.27;70.17
11347;BME280;5728;42.722;23.258;2023-02-10T01:25:43;96513.31;;;-3.41;70.91
11347;BME280;5728;42.722;23.258;2023-02-10T01:28:10;96495.34;;;-3.04;69.64
11347;BME280;5728;42.722;23.258;2023-02-10T01:30:37;96493.78;;;-3.29;69.45
11347;BME280;5728;42.722;23.258;2023-02-10T01:33:05;96478.84;;;-2.85;68.29
11347;BME280;5728;42.722;23.258;2023-02-10T01:35:32;96495.75;;;-2.98;67.85
11347;BME280;5728;42.722;23.258;2023-02-10T01:37:59;96496.63;;;-2.98;68.75
11347;BME280;5728;42.722;23.258;2023-02-10T01:40:26;96479.41;;;-2.89;68.71
11347;BME280;5728;42.722;23.258;2023-02-10T01:42:53;96482.34;;;-2.83;68.59
11347;BME280;5728;42.722;23.258;2023-02-10T01:45:24;96485.16;;;-2.65;66.73
11347;BME280;5728;42.722;23.258;2023-02-10T01:47:52;96470.22;;;-2.87;66.03
11347;BME280;5728;42.722;23.258;2023-02-10T01:50:23;96494.72;;;-2.74;66.24
11347;BME280;5728;42.722;23.258;2023-02-10T01:52:51;96477.75;;;-2.88;67.46
11347;BME280;5728;42.722;23.258;2023-02-10T01:55:20;96466.25;;;-3.09;69.61
11347;BME280;5728;42.722;23.258;2023-02-10T01:57:48;96461.78;;;-2.87;69.77
11347;BME280;5728;42.722;23.258;2023-02-10T02:00:20;96455.47;;;-2.79;67.64
11347;BME280;5728;42.722;23.258;2023-02-10T02:02:48;96466.78;;;-2.74;68.54
11347;BME280;5728;42.722;23.258;2023-02-10T02:05:22;96461.16;;;-2.83;68.95
11347;BME280;5728;42.722;23.258;2023-02-10T02:07:51;96465.91;;;-3.02;68.85
11347;BME280;5728;42.722;23.258;2023-02-10T02:10:18;96467.09;;;-2.70;66.98
11347;BME280;5728;42.722;23.258;2023-02-10T02:12:50;96461.03;;;-2.72;64.38
11347;BME280;5728;42.722;23.258;2023-02-10T02:15:25;96444.78;;;-2.88;65.06
11347;BME280;5728;42.722;23.258;2023-02-10T02:17:59;96454.50;;;-2.81;66.72
11347;BME280;5728;42.722;23.258;2023-02-10T02:20:47;96451.50;;;-2.89;67.33
11347;BME280;5728;42.722;23.258;2023-02-10T02:23:38;96447.25;;;-3.03;68.14
11347;BME280;5728;42.722;23.258;2023-02-10T02:26:34;96453.22;;;-3.02;67.54
11347;BME280;5728;42.722;23.258;2023-02-10T02:29:20;96447.69;;;-2.82;66.39
11347;BME280;5728;42.722;23.258;2023-02-10T02:31:59;96447.81;;;-2.94;66.04
11347;BME280;5728;42.722;23.258;2023-02-10T02:34:34;96446.91;;;-2.94;69.33
11347;BME280;5728;42.722;23.258;2023-02-10T02:37:07;96453.97;;;-2.90;65.67
11347;BME280;5728;42.722;23.258;2023-02-10T02:39:35;96449.41;;;-3.09;66.45
11347;BME280;5728;42.722;23.258;2023-02-10T02:42:20;96451.47;;;-3.43;66.28
11347;BME280;5728;42.722;23.258;2023-02-10T02:44:50;96438.59;;;-3.33;67.58
11347;BME280;5728;42.722;23.258;2023-02-10T02:47:27;96441.63;;;-3.38;67.07
11347;BME280;5728;42.722;23.258;2023-02-10T02:50:05;96445.16;;;-4.13;68.67
11347;BME280;5728;42.722;23.258;2023-02-10T02:52:45;96432.31;;;-4.28;68.95
11347;BME280;5728;42.722;23.258;2023-02-10T02:55:22;96443.00;;;-4.07;68.77
11347;BME280;5728;42.722;23.258;2023-02-10T02:57:57;96432.72;;;-3.84;69.02
11347;BME280;5728;42.722;23.258;2023-02-10T03:00:30;96440.69;;;-4.04;68.65
11347;BME280;5728;42.722;23.258;2023-02-10T03:02:59;96421.19;;;-4.68;69.16
11347;BME280;5728;42.722;23.258;2023-02-10T03:05:28;96486.72;;;-4.84;71.22
11347;BME280;5728;42.722;23.258;2023-02-10T03:07:55;96445.56;;;-4.81;72.37
11347;BME280;5728;42.722;23.258;2023-02-10T03:10:22;96440.38;;;-4.46;73.08
11347;BME280;5728;42.722;23.258;2023-02-10T03:12:49;96445.06;;;-4.64;72.99
11347;BME280;5728;42.722;23.258;2023-02-10T03:15:17;96442.72;;;-5.45;73.99
11347;BME280;5728;42.722;23.258;2023-02-10T03:17:44;96447.22;;;-5.30;77.47
11347;BME280;5728;42.722;23.258;2023-02-10T03:20:12;96448.88;;;-5.65;76.13
11347;BME280;5728;42.722;23.258;2023-02-10T03:22:40;96453.56;;;-5.11;78.59
11347;BME280;5728;42.722;23.258;2023-02-10T03:25:07;96449.94;;;-5.15;78.38
11347;BME280;5728;42.722;23.258;2023-02-10T03:27:34;96438.56;;;-4.97;76.34
11347;BME280;5728;42.722;23.258;2023-02-10T03:30:01;96443.19;;;-4.91;73.79
11347;BME280;5728;42.722;23.258;2023-02-10T03:32:27;96440.03;;;-4.76;73.07
11347;BME280;5728;42.722;23.258;2023-02-10T03:34:54;96442.59;;;-4.51;73.56
11347;BME280;5728;42.722;23.258;2023-02-10T03:37:22;96435.03;;;-4.38;74.06
11347;BME280;5728;42.722;23.258;2023-02-10T03:39:49;96436.63;;;-5.12;77.49
11347;BME280;5728;42.722;23.258;2023-02-10T03:42:16;96431.34;;;-5.04;76.77
11347;BME280;5728;42.722;23.258;2023-02-10T03:44:43;96431.47;;;-4.78;76.71
11347;BME280;5728;42.722;23.258;2023-02-10T03:47:09;96432.50;;;-5.58;75.70
11347;BME280;5728;42.722;23.258;2023-02-10T03:49:36;96437.84;;;-6.68;78.40
11347;BME280;5728;42.722;23.258;2023-02-10T03:52:03;96423.94;;;-5.60;78.83
11347;BME280;5728;42.722;23.258;2023-02-10T03:54:31;96413.72;;;-5.02;75.46
11347;BME280;5728;42.722;23.258;2023-02-10T03:56:59;96412.25;;;-4.63;74.65
11347;BME280;5728;42.722;23.258;2023-02-10T03:59:25;96418.03;;;-5.13;73.18
11347;BME280;5728;42.722;23.258;2023-02-10T04:01:54;96413.91;;;-4.88;73.10
11347;BME280;5728;42.722;23.258;2023-02-10T04:04:21;96415.09;;;-4.83;72.44
11347;BME280;5728;42.722;23.258;2023-02-10T04:06:48;96408.31;;;-4.71;73.14
11347;BME280;5728;42.722;23.258;2023-02-10T04:09:14;96420.66;;;-4.64;72.49
11347;BME280;5728;42.722;23.258;2023-02-10T04:11:42;96417.44;;;-4.36;70.68
11347;BME280;5728;42.722;23.258;2023-02-10T04:14:09;96418.41;;;-4.34;70.15
11347;BME280;5728;42.722;23.258;2023-02-10T04:16:36;96415.69;;;-4.24;71.61
11347;BME280;5728;42.722;23.258;2023-02-10T04:19:03;96421.56;;;-4.12;69.92
11347;BME280;5728;42.722;23.258;2023-02-10T04:21:29;96420.66;;;-3.88;68.62
11347;BME280;5728;42.722;23.258;2023-02-10T04:23:59;96420.09;;;-4.22;68.06
11347;BME280;5728;42.722;23.258;2023-02-10T04:26:26;96416.69;;;-4.47;69.26
11347;BME280;5728;42.722;23.258;2023-02-10T04:28:54;96424.66;;;-4.29;68.13
11347;BME280;5728;42.722;23.258;2023-02-10T04:31:21;96417.84;;;-4.55;69.81
11347;BME280;5728;42.722;23.258;2023-02-10T04:33:47;96428.94;;;-5.14;71.05
11347;BME280;5728;42.722;23.258;2023-02-10T04:36:14;96430.06;;;-5.22;72.29
11347;BME280;5728;42.722;23.258;2023-02-10T04:38:41;96430.06;;;-5.22;73.92
11347;BME280;5728;42.722;23.258;2023-02-10T04:41:08;96431.00;;;-5.79;73.97
11347;BME280;5728;42.722;23.258;2023-02-10T04:43:34;96428.38;;;-5.93;76.26
11347;BME280;5728;42.722;23.258;2023-02-10T04:46:03;96411.72;;;-6.80;76.70
11347;BME280;5728;42.722;23.258;2023-02-10T04:48:30;96452.75;;;-6.71;77.99
11347;BME280;5728;42.722;23.258;2023-02-10T04:50:57;96437.78;;;-7.13;78.47
11347;BME280;5728;42.722;23.258;2023-02-10T04:53:24;96413.19;;;-7.37;79.82
11347;BME280;5728;42.722;23.258;2023-02-10T04:55:50;96433.13;;;-6.42;79.98
11347;BME280;5728;42.722;23.258;2023-02-10T04:58:17;96433.56;;;-6.69;78.52
11347;BME280;5728;42.722;23.258;2023-02-10T05:00:44;96434.47;;;-6.24;77.53
11347;BME280;5728;42.722;23.258;2023-02-10T05:03:12;96447.06;;;-6.35;78.45
11347;BME280;5728;42.722;23.258;2023-02-10T05:05:39;96440.78;;;-5.96;80.04
11347;BME280;5728;42.722;23.258;2023-02-10T05:08:06;96447.63;;;-6.28;78.54
11347;BME280;5728;42.722;23.258;2023-02-10T05:10:33;96455.69;;;-6.98;78.47
11347;BME280;5728;42.722;23.258;2023-02-10T05:12:59;96453.13;;;-6.88;80.65
11347;BME280;5728;42.722;23.258;2023-02-10T05:15:26;96469.66;;;-6.70;80.88
11347;BME280;5728;42.722;23.258;2023-02-10T05:17:53;96447.94;;;-6.35;80.03
11347;BME280;5728;42.722;23.258;2023-02-10T05:20:21;96446.72;;;-6.40;80.75
11347;BME280;5728;42.722;23.258;2023-02-10T05:22:48;96465.25;;;-5.95;82.18
11347;BME280;5728;42.722;23.258;2023-02-10T05:25:15;96469.84;;;-5.77;78.24
11347;BME280;5728;42.722;23.258;2023-02-10T05:27:41;96473.59;;;-5.96;77.02
11347;BME280;5728;42.722;23.258;2023-02-10T05:30:10;96474.69;;;-5.57;77.89
11347;BME280;5728;42.722;23.258;2023-02-10T05:32:38;96483.91;;;-5.23;76.91
11347;BME280;5728;42.722;23.258;2023-02-10T05:35:05;96480.16;;;-5.05;74.42
11347;BME280;5728;42.722;23.258;2023-02-10T05:37:33;96477.56;;;-4.93;73.14
11347;BME280;5728;42.722;23.258;2023-02-10T05:40:00;96477.28;;;-4.62;71.06
11347;BME280;5728;42.722;23.258;2023-02-10T05:42:27;96478.88;;;-4.51;70.53
11347;BME280;5728;42.722;23.258;2023-02-10T05:44:54;96477.59;;;-4.32;69.99
11347;BME280;5728;42.722;23.258;2023-02-10T05:47:20;96486.34;;;-4.77;69.56
11347;BME280;5728;42.722;23.258;2023-02-10T05:49:47;96486.84;;;-4.94;71.84
11347;BME280;5728;42.722;23.258;2023-02-10T05:52:14;96483.66;;;-5.03;74.42
11347;BME280;5728;42.722;23.258;2023-02-10T05:54:42;96497.28;;;-5.01;77.37
11347;BME280;5728;42.722;23.258;2023-02-10T05:57:09;96490.50;;;-5.25;78.11
11347;BME280;5728;42.722;23.258;2023-02-10T05:59:35;96496.28;;;-5.03;75.08
11347;BME280;5728;42.722;23.258;2023-02-10T06:02:02;96502.03;;;-5.40;72.75
11347;BME280;5728;42.722;23.258;2023-02-10T06:04:29;96504.88;;;-6.05;74.97
11347;BME280;5728;42.722;23.258;2023-02-10T06:06:55;96503.84;;;-6.52;77.01
11347;BME280;5728;42.722;23.258;2023-02-10T06:09:22;96500.81;;;-7.01;78.61
11347;BME280;5728;42.722;23.258;2023-02-10T06:11:51;96517.47;;;-7.25;80.13
11347;BME280;5728;42.722;23.258;2023-02-10T06:14:18;96510.13;;;-6.47;83.17
11347;BME280;5728;42.722;23.258;2023-02-10T06:16:44;96512.41;;;-6.17;83.13
11347;BME280;5728;42.722;23.258;2023-02-10T06:19:11;96518.78;;;-6.22;81.42
11347;BME280;5728;42.722;23.258;2023-02-10T06:21:38;96518.16;;;-5.96;79.82
11347;BME280;5728;42.722;23.258;2023-02-10T06:24:05;96519.94;;;-5.72;79.84
11347;BME280;5728;42.722;23.258;2023-02-10T06:26:31;96526.31;;;-5.07;78.01
11347;BME280;5728;42.722;23.258;2023-02-10T06:28:59;96527.53;;;-4.55;75.50
11347;BME280;5728;42.722;23.258;2023-02-10T06:31:26;96518.53;;;-4.26;74.67
11347;BME280;5728;42.722;23.258;2023-02-10T06:33:53;96510.84;;;-4.03;72.53
11347;BME280;5728;42.722;23.258;2023-02-10T06:36:20;96529.22;;;-3.81;70.02
11347;BME280;5728;42.722;23.258;2023-02-10T06:38:46;96525.88;;;-3.55;69.14
11347;BME280;5728;42.722;23.258;2023-02-10T06:41:13;96527.63;;;-3.41;69.34
11347;BME280;5728;42.722;23.258;2023-02-10T06:43:40;96534.06;;;-2.94;68.12
11347;BME280;5728;42.722;23.258;2023-02-10T06:46:08;96532.28;;;-2.55;67.15
11347;BME280;5728;42.722;23.258;2023-02-10T06:48:36;96531.38;;;-2.43;67.46
11347;BME280;5728;42.722;23.258;2023-02-10T06:51:03;96516.53;;;-2.37;71.40
11347;BME280;5728;42.722;23.258;2023-02-10T06:53:29;96539.16;;;-2.27;71.14
11347;BME280;5728;42.722;23.258;2023-02-10T06:55:56;96535.97;;;-2.10;66.78
11347;BME280;5728;42.722;23.258;2023-02-10T06:58:23;96547.00;;;-1.81;65.46
11347;BME280;5728;42.722;23.258;2023-02-10T07:00:50;96542.47;;;-1.58;64.70
11347;BME280;5728;42.722;23.258;2023-02-10T07:03:18;96542.13;;;-1.49;64.93
11347;BME280;5728;42.722;23.258;2023-02-10T07:05:45;96543.97;;;-1.32;67.72
11347;BME280;5728;42.722;23.258;2023-02-10T07:08:11;96541.75;;;-1.55;69.08
11347;BME280;5728;42.722;23.258;2023-02-10T07:10:38;96532.28;;;-1.72;66.69
11347;BME280;5728;42.722;23.258;2023-02-10T07:13:05;96526.78;;;-1.21;62.77
11347;BME280;5728;42.722;23.258;2023-02-10T07:15:32;96533.16;;;-0.99;62.50
11347;BME280;5728;42.722;23.258;2023-02-10T07:17:59;96529.75;;;-1.14;65.60
11347;BME280;5728;42.722;23.258;2023-02-10T07:20:27;96520.00;;;-1.06;66.60
11347;BME280;5728;42.722;23.258;2023-02-10T07:22:54;96522.19;;;-0.98;63.95
11347;BME280;5728;42.722;23.258;2023-02-10T07:25:21;96524.00;;;-1.26;66.14
11347;BME280;5728;42.722;23.258;2023-02-10T07:27:47;96533.81;;;-1.32;64.83
11347;BME280;5728;42.722;23.258;2023-02-10T07:30:14;96528.78;;;-1.31;65.55
11347;BME280;5728;42.722;23.258;2023-02-10T07:32:41;96529.13;;;-1.10;65.03
11347;BME280;5728;42.722;23.258;2023-02-10T07:35:09;96527.16;;;-0.85;66.38
11347;BME280;5728;42.722;23.258;2023-02-10T07:37:38;96526.59;;;-1.10;63.23
11347;BME280;5728;42.722;23.258;2023-02-10T07:40:05;96529.38;;;-0.60;64.58
11347;BME280;5728;42.722;23.258;2023-02-10T07:42:32;96533.97;;;-1.14;62.07
11347;BME280;5728;42.722;23.258;2023-02-10T07:45:00;96525.06;;;-0.92;59.50
11347;BME280;5728;42.722;23.258;2023-02-10T07:47:26;96515.16;;;-1.02;63.59
11347;BME280;5728;42.722;23.258;2023-02-10T07:49:53;96522.97;;;-0.84;62.61
11347;BME280;5728;42.722;23.258;2023-02-10T07:52:21;96524.72;;;-0.98;61.73
11347;BME280;5728;42.722;23.258;2023-02-10T07:54:49;96529.13;;;-0.65;61.98
11347;BME280;5728;42.722;23.258;2023-02-10T07:57:16;96530.50;;;-0.40;60.68
11347;BME280;5728;42.722;23.258;2023-02-10T07:59:43;96538.28;;;-0.37;60.52
11347;BME280;5728;42.722;23.258;2023-02-10T08:02:10;96531.41;;;0.09;57.81
11347;BME280;5728;42.722;23.258;2023-02-10T08:04:37;96537.13;;;0.37;57.39
11347;BME280;5728;42.722;23.258;2023-02-10T08:07:04;96527.97;;;0.24;55.56
11347;BME280;5728;42.722;23.258;2023-02-10T08:09:31;96534.34;;;0.82;54.74
11347;BME280;5728;42.722;23.258;2023-02-10T08:11:59;96524.09;;;0.64;55.56
11347;BME280;5728;42.722;23.258;2023-02-10T08:14:26;96531.47;;;0.26;55.69
11347;BME280;5728;42.722;23.258;2023-02-10T08:16:53;96530.91;;;0.32;56.48
11347;BME280;5728;42.722;23.258;2023-02-10T08:19:20;96523.38;;;0.51;54.25
11347;BME280;5728;42.722;23.258;2023-02-10T08:21:46;96525.16;;;0.52;53.17
11347;BME280;5728;42.722;23.258;2023-02-10T08:24:13;96521.91;;;0.22;56.22
11347;BME280;5728;42.722;23.258;2023-02-10T08:26:41;96517.28;;;0.15;54.10
11347;BME280;5728;42.722;23.258;2023-02-10T08:29:09;96519.22;;;0.87;54.90
11347;BME280;5728;42.722;23.258;2023-02-10T08:31:37;96519.88;;;0.65;53.12
11347;BME280;5728;42.722;23.258;2023-02-10T08:34:04;96514.19;;;1.06;54.68
11347;BME280;5728;42.722;23.258;2023-02-10T08:36:31;96511.91;;;1.65;53.28
11347;BME280;5728;42.722;23.258;2023-02-10T08:38:58;96507.00;;;1.15;54.48
11347;BME280;5728;42.722;23.258;2023-02-10T08:41:24;96516.38;;;0.98;53.05
11347;BME280;5728;42.722;23.258;2023-02-10T08:43:55;96504.09;;;0.74;54.52
11347;BME280;5728;42.722;23.258;2023-02-10T08:46:24;96516.69;;;1.22;53.17
11347;BME280;5728;42.722;23.258;2023-02-10T08:48:51;96513.72;;;1.13;52.79
11347;BME280;5728;42.722;23.258;2023-02-10T08:51:18;96506.84;;;1.12;52.28
11347;BME280;5728;42.722;23.258;2023-02-10T08:53:44;96504.31;;;1.66;52.15
11347;BME280;5728;42.722;23.258;2023-02-10T08:56:15;96507.84;;;2.45;52.08
11347;BME280;5728;42.722;23.258;2023-02-10T08:58:42;96514.34;;;2.97;48.23
11347;BME280;5728;42.722;23.258;2023-02-10T09:01:09;96502.38;;;2.77;49.20
11347;BME280;5728;42.722;23.258;2023-02-10T09:03:38;96509.44;;;2.62;50.65
11347;BME280;5728;42.722;23.258;2023-02-10T09:06:04;96495.19;;;2.48;53.90
11347;BME280;5728;42.722;23.258;2023-02-10T09:08:31;96500.38;;;2.70;47.77
11347;BME280;5728;42.722;23.258;2023-02-10T09:10:58;96500.84;;;3.65;51.41
11347;BME280;5728;42.722;23.258;2023-02-10T09:13:25;96492.34;;;3.02;49.29
11347;BME280;5728;42.722;23.258;2023-02-10T09:15:51;96494.38;;;3.52;50.44
11347;BME280;5728;42.722;23.258;2023-02-10T09:18:18;96485.28;;;3.82;50.36
11347;BME280;5728;42.722;23.258;2023-02-10T09:20:46;96491.63;;;3.92;47.34
11347;BME280;5728;42.722;23.258;2023-02-10T09:23:13;96488.91;;;4.11;50.18
11347;BME280;5728;42.722;23.258;2023-02-10T09:25:39;96496.44;;;4.54;46.43
11347;BME280;5728;42.722;23.258;2023-02-10T09:28:06;96477.16;;;5.44;47.46
11347;BME280;5728;42.722;23.258;2023-02-10T09:30:34;96487.16;;;5.35;44.15
11347;BME280;5728;42.722;23.258;2023-02-10T09:33:01;96479.94;;;5.23;41.62
11347;BME280;5728;42.722;23.258;2023-02-10T09:35:27;96477.38;;;5.23;43.24
11347;BME280;5728;42.722;23.258;2023-02-10T09:37:55;96474.06;;;4.03;42.69
11347;BME280;5728;42.722;23.258;2023-02-10T09:40:26;96479.06;;;4.00;42.35
11347;BME280;5728;42.722;23.258;2023-02-10T09:43:12;96475.13;;;4.57;43.86
11347;BME280;5728;42.722;23.258;2023-02-10T09:45:47;96476.72;;;3.60;41.92
11347;BME280;5728;42.722;23.258;2023-02-10T09:48:27;96472.97;;;3.52;45.05
11347;BME280;5728;42.722;23.258;2023-02-10T09:51:01;96468.13;;;2.94;44.95
11347;BME280;5728;42.722;23.258;2023-02-10T09:53:31;96460.25;;;4.23;46.54
11347;BME280;5728;42.722;23.258;2023-02-10T09:55:59;96465.56;;;3.81;43.77
11347;BME280;5728;42.722;23.258;2023-02-10T09:58:34;96456.22;;;4.80;50.51
11347;BME280;5728;42.722;23.258;2023-02-10T10:01:09;96454.69;;;4.60;41.87
11347;BME280;5728;42.722;23.258;2023-02-10T10:03:41;96445.81;;;5.55;40.49
11347;BME280;5728;42.722;23.258;2023-02-10T10:06:18;96444.38;;;6.23;39.27
11347;BME280;5728;42.722;23.258;2023-02-10T10:08:54;96441.44;;;5.53;39.30
11347;BME280;5728;42.722;23.258;2023-02-10T10:11:26;96435.84;;;5.11;41.44
11347;BME280;5728;42.722;23.258;2023-02-10T10:13:54;96436.78;;;4.14;42.94
11347;BME280;5728;42.722;23.258;2023-02-10T10:16:39;96447.16;;;3.93;40.84
11347;BME280;5728;42.722;23.258;2023-02-10T10:19:17;96424.00;;;4.39;41.88
11347;BME280;5728;42.722;23.258;2023-02-10T10:21:51;96418.72;;;5.68;42.15
11347;BME280;5728;42.722;23.258;2023-02-10T10:24:33;96408.56;;;6.32;39.63
11347;BME280;5728;42.722;23.258;2023-02-10T10:27:17;96413.97;;;5.81;37.07
11347;BME280;5728;42.722;23.258;2023-02-10T10:29:51;96409.69;;;6.74;37.90
11347;BME280;5728;42.722;23.258;2023-02-10T10:32:26;96399.59;;;7.55;40.07
11347;BME280;5728;42.722;23.258;2023-02-10T10:34:58;96396.25;;;8.01;35.00
11347;BME280;5728;42.722;23.258;2023-02-10T10:37:26;96399.84;;;7.67;35.11
11347;BME280;5728;42.722;23.258;2023-02-10T10:39:57;96396.22;;;7.59;35.94
11347;BME280;5728;42.722;23.258;2023-02-10T10:42:28;96391.09;;;7.23;35.19
11347;BME280;5728;42.722;23.258;2023-02-10T10:45:05;96384.72;;;6.08;38.98
11347;BME280;5728;42.722;23.258;2023-02-10T10:47:40;96389.22;;;6.15;36.98
11347;BME280;5728;42.722;23.258;2023-02-10T10:50:13;96382.16;;;6.08;37.54
11347;BME280;5728;42.722;23.258;2023-02-10T10:52:41;96387.53;;;5.57;38.78
11347;BME280;5728;42.722;23.258;2023-02-10T10:55:14;96378.13;;;4.24;39.34
11347;BME280;5728;42.722;23.258;2023-02-10T10:57:42;96367.59;;;5.78;40.13
11347;BME280;5728;42.722;23.258;2023-02-10T11:00:17;96364.56;;;5.63;37.89
11347;BME280;5728;42.722;23.258;2023-02-10T11:02:54;96346.69;;;5.68;37.27
11347;BME280;5728;42.722;23.258;2023-02-10T11:05:22;96372.00;;;5.26;38.07
11347;BME280;5728;42.722;23.258;2023-02-10T11:07:52;96368.47;;;6.74;37.80
11347;BME280;5728;42.722;23.258;2023-02-10T11:10:25;96359.09;;;7.94;36.05
11347;BME280;5728;42.722;23.258;2023-02-10T11:12:53;96358.25;;;8.37;33.95
11347;BME280;5728;42.722;23.258;2023-02-10T11:15:37;96356.16;;;8.19;33.94
11347;BME280;5728;42.722;23.258;2023-02-10T11:18:07;96361.28;;;6.30;35.79
11347;BME280;5728;42.722;23.258;2023-02-10T11:20:40;96353.63;;;7.01;35.98
11347;BME280;5728;42.722;23.258;2023-02-10T11:23:13;96347.31;;;8.08;34.72
11347;BME280;5728;42.722;23.258;2023-02-10T11:25:45;96342.28;;;8.14;34.17
11347;BME280;5728;42.722;23.258;2023-02-10T11:28:17;96340.34;;;9.00;35.18
11347;BME280;5728;42.722;23.258;2023-02-10T11:30:46;96341.44;;;8.62;32.28
11347;BME280;5728;42.722;23.258;2023-02-10T11:33:19;96341.56;;;7.00;34.61
11347;BME280;5728;42.722;23.258;2023-02-10T11:35:48;96334.38;;;5.86;37.41
11347;BME280;5728;42.722;23.258;2023-02-10T11:38:19;96339.50;;;7.22;36.42
11347;BME280;5728;42.722;23.258;2023-02-10T11:40:51;96325.06;;;7.71;36.55
11347;BME280;5728;42.722;23.258;2023-02-10T11:43:19;96336.97;;;7.25;35.03
11347;BME280;5728;42.722;23.258;2023-02-10T11:45:51;96318.94;;;7.26;37.59
11347;BME280;5728;42.722;23.258;2023-02-10T11:48:21;96324.94;;;8.07;34.38
11347;BME280;5728;42.722;23.258;2023-02-10T11:50:48;96324.50;;;8.28;34.73
11347;BME280;5728;42.722;23.258;2023-02-10T11:53:25;96318.50;;;8.30;34.58
11347;BME280;5728;42.722;23.258;2023-02-10T11:55:58;96322.97;;;8.90;34.06
11347;BME280;5728;42.722;23.258;2023-02-10T11:58:49;96316.19;;;8.98;41.31
11347;BME280;5728;42.722;23.258;2023-02-10T12:01:37;96309.44;;;9.69;33.53
11347;BME280;5728;42.722;23.258;2023-02-10T12:04:19;96303.03;;;9.41;34.93
11347;BME280;5728;42.722;23.258;2023-02-10T12:06:55;96293.91;;;9.71;33.52
11347;BME280;5728;42.722;23.258;2023-02-10T12:09:31;96301.66;;;9.06;33.21
11347;BME280;5728;42.722;23.258;2023-02-10T12:12:09;96298.19;;;9.07;33.76
11347;BME280;5728;42.722;23.258;2023-02-10T12:14:51;96287.50;;;10.12;32.86
11347;BME280;5728;42.722;23.258;2023-02-10T12:17:31;96286.09;;;10.47;31.93
11347;BME280;5728;42.722;23.258;2023-02-10T12:20:25;96280.13;;;10.56;30.91
11347;BME280;5728;42.722;23.258;2023-02-10T12:23:11;96274.47;;;11.08;31.21
11347;BME280;5728;42.722;23.258;2023-02-10T12:25:51;96275.72;;;10.47;31.77
11347;BME280;5728;42.722;23.258;2023-02-10T12:28:28;96275.22;;;10.90;31.22
11347;BME280;5728;42.722;23.258;2023-02-10T12:31:06;96278.34;;;10.50;32.83
11347;BME280;5728;42.722;23.258;2023-02-10T12:33:49;96277.00;;;8.24;33.68
11347;BME280;5728;42.722;23.258;2023-02-10T12:36:24;96282.22;;;8.75;33.99
11347;BME280;5728;42.722;23.258;2023-02-10T12:39:06;96278.81;;;9.39;33.53
11347;BME280;5728;42.722;23.258;2023-02-10T12:41:45;96264.31;;;9.52;32.72
11347;BME280;5728;42.722;23.258;2023-02-10T12:44:26;96255.13;;;8.54;35.81
11347;BME280;5728;42.722;23.258;2023-02-10T12:47:01;96269.00;;;8.11;34.42
11347;BME280;5728;42.722;23.258;2023-02-10T12:49:43;96264.13;;;7.80;37.20
11347;BME280;5728;42.722;23.258;2023-02-10T12:52:14;96257.34;;;5.94;37.82
11347;BME280;5728;42.722;23.258;2023-02-10T12:54:49;96268.72;;;6.36;39.29
11347;BME280;5728;42.722;23.258;2023-02-10T12:57:21;96256.31;;;7.33;36.89
11347;BME280;5728;42.722;23.258;2023-02-10T12:59:56;96269.53;;;7.92;35.41
11347;BME280;5728;42.722;23.258;2023-02-10T13:02:31;96262.19;;;9.21;34.42
11347;BME280;5728;42.722;23.258;2023-02-10T13:05:02;96261.41;;;9.97;33.93
11347;BME280;5728;42.722;23.258;2023-02-10T13:07:37;96254.31;;;9.82;32.72
11347;BME280;5728;42.722;23.258;2023-02-10T13:10:18;96261.97;;;9.75;32.68
11347;BME280;5728;42.722;23.258;2023-02-10T13:12:48;96257.09;;;8.68;33.39
11347;BME280;5728;42.722;23.258;2023-02-10T13:15:21;96261.69;;;9.50;33.63
11347;BME280;5728;42.722;23.258;2023-02-10T13:17:50;96261.19;;;10.64;32.42
11347;BME280;5728;42.722;23.258;2023-02-10T13:20:30;96251.88;;;10.90;31.83